Time;durP1;ratioP1;P1;durP2;ratioP2;P2;SDS_P1;SDS_P2;PMS_P1;PMS_P2;Temp;Humidity;BMP_temperature;BMP_pressure;BME280_temperature;BME280_humidity;BME280_pressure;Samples;Min_cycle;Max_cycle;Signal;HPM_P1;HPM_P2
2023/12/15 00:01:57;;;;;;;86.15;31.25;;;3.70;99.90;;;;;;4916310;28;20537;-77
2023/12/15 00:04:24;;;;;;;87.50;33.25;;;3.70;99.90;;;;;;4930537;28;20056;-77
2023/12/15 00:06:51;;;;;;;84.13;32.88;;;3.70;99.90;;;;;;4916886;28;20077;-77
2023/12/15 00:09:17;;;;;;;76.38;30.00;;;3.70;99.90;;;;;;4921564;29;20051;-77
2023/12/15 00:11:44;;;;;;;87.78;32.75;;;3.70;99.90;;;;;;4915174;28;20485;-77
2023/12/15 00:14:11;;;;;;;86.78;31.70;;;3.70;99.90;;;;;;4935482;28;20054;-77
2023/12/15 00:16:38;;;;;;;95.07;35.75;;;3.70;99.90;;;;;;4932261;28;20047;-77
2023/12/15 00:19:04;;;;;;;106.65;39.00;;;3.70;99.90;;;;;;4911109;28;20705;-77
2023/12/15 00:21:31;;;;;;;105.75;39.28;;;3.70;99.90;;;;;;4917541;29;20556;-77
2023/12/15 00:23:58;;;;;;;109.28;37.40;;;3.70;99.90;;;;;;4899790;28;20562;-78
2023/12/15 00:26:25;;;;;;;115.72;40.17;;;3.80;99.90;;;;;;4899945;29;20047;-77
2023/12/15 00:28:52;;;;;;;116.05;40.88;;;3.80;99.90;;;;;;4915591;28;20059;-77
2023/12/15 00:31:18;;;;;;;120.50;41.63;;;3.80;99.90;;;;;;4941126;28;20039;-77
2023/12/15 00:33:45;;;;;;;130.38;43.30;;;3.80;99.90;;;;;;4915711;28;20790;-77
2023/12/15 00:36:12;;;;;;;124.55;40.30;;;3.80;99.90;;;;;;4900118;29;20102;-77
2023/12/15 00:38:39;;;;;;;121.57;43.47;;;3.70;99.90;;;;;;4922912;28;20110;-77
2023/12/15 00:41:05;;;;;;;115.47;41.25;;;3.60;99.90;;;;;;4914441;28;20055;-76
2023/12/15 00:43:32;;;;;;;119.43;41.53;;;3.60;99.90;;;;;;4900051;29;20139;-78
2023/12/15 00:45:59;;;;;;;123.68;40.03;;;3.60;99.90;;;;;;4918877;28;20039;-78
2023/12/15 00:48:27;;;;;;;130.05;44.38;;;3.70;99.90;;;;;;4917880;29;20051;-78
2023/12/15 00:50:54;;;;;;;112.25;39.97;;;3.70;99.90;;;;;;4933435;28;20054;-76
2023/12/15 00:53:21;;;;;;;125.70;41.40;;;3.70;99.90;;;;;;4936528;28;20110;-76
2023/12/15 00:55:48;;;;;;;121.50;43.45;;;3.70;99.90;;;;;;4907409;28;20178;-76
2023/12/15 00:58:15;;;;;;;130.13;43.85;;;3.70;99.90;;;;;;4919899;29;20047;-76
2023/12/15 01:00:41;;;;;;;129.20;42.35;;;3.70;99.90;;;;;;4934628;28;20051;-76
2023/12/15 01:03:08;;;;;;;120.72;42.67;;;3.70;99.90;;;;;;4929287;28;20297;-76
2023/12/15 01:05:36;;;;;;;124.03;42.60;;;3.70;99.90;;;;;;4932935;28;20039;-77
2023/12/15 01:08:03;;;;;;;129.88;44.72;;;3.70;99.90;;;;;;4929495;28;20043;-76
2023/12/15 01:10:29;;;;;;;134.52;41.92;;;3.70;99.90;;;;;;4913718;29;20142;-76
2023/12/15 01:12:56;;;;;;;129.40;43.83;;;3.70;99.90;;;;;;4914365;28;20057;-76
2023/12/15 01:15:23;;;;;;;136.02;43.55;;;3.70;99.90;;;;;;4912988;28;20039;-76
2023/12/15 01:17:50;;;;;;;139.10;46.22;;;3.70;99.90;;;;;;4916565;28;20502;-77
2023/12/15 01:20:21;;;;;;;143.65;44.63;;;3.70;99.90;;;;;;4934113;28;27148;-76
2023/12/15 01:22:48;;;;;;;131.10;43.58;;;3.70;99.90;;;;;;4913789;28;20051;-76
2023/12/15 01:25:15;;;;;;;138.80;44.75;;;3.80;99.90;;;;;;4910522;29;20043;-76
2023/12/15 01:27:42;;;;;;;152.00;45.25;;;3.70;99.90;;;;;;4902548;28;20573;-76
2023/12/15 01:30:09;;;;;;;134.93;43.83;;;3.70;99.90;;;;;;4900343;28;20051;-76
2023/12/15 01:32:35;;;;;;;133.68;44.88;;;3.70;99.90;;;;;;4900243;28;20054;-76
2023/12/15 01:35:03;;;;;;;141.32;45.63;;;3.70;99.90;;;;;;4923081;28;20106;-76
2023/12/15 01:37:30;;;;;;;156.27;45.15;;;3.70;99.90;;;;;;4919797;29;20059;-79
2023/12/15 01:39:56;;;;;;;143.85;43.30;;;3.70;99.90;;;;;;4918788;28;20058;-78
2023/12/15 01:42:26;;;;;;;148.45;44.95;;;3.80;99.90;;;;;;4936106;28;20541;-77
2023/12/15 01:44:53;;;;;;;150.27;44.05;;;3.70;99.90;;;;;;4944222;28;20044;-76
2023/12/15 01:47:21;;;;;;;130.45;45.53;;;3.70;99.90;;;;;;4939685;29;20043;-77
2023/12/15 01:49:48;;;;;;;151.75;47.38;;;3.70;99.90;;;;;;4941098;28;20051;-76
2023/12/15 01:52:15;;;;;;;130.18;44.58;;;3.70;99.90;;;;;;4937068;28;20051;-79
2023/12/15 01:54:42;;;;;;;137.15;46.17;;;3.70;99.90;;;;;;4931795;28;20059;-76
2023/12/15 01:57:09;;;;;;;150.68;47.08;;;3.70;99.90;;;;;;4940995;28;20051;-77
2023/12/15 01:59:44;;;;;;;134.93;42.92;;;3.80;99.90;;;;;;4902906;28;20043;-77
2023/12/15 02:02:11;;;;;;;137.32;46.15;;;3.80;99.90;;;;;;4937475;28;21153;-77
2023/12/15 02:04:39;;;;;;;144.43;45.25;;;3.80;99.90;;;;;;4929027;28;20048;-78
2023/12/15 02:07:06;;;;;;;130.57;44.25;;;3.80;99.90;;;;;;4922199;28;20082;-79
2023/12/15 02:09:33;;;;;;;144.57;48.15;;;3.80;99.90;;;;;;4925468;28;20107;-77
2023/12/15 02:12:00;;;;;;;143.45;45.30;;;3.80;99.90;;;;;;4900894;28;20036;-77
2023/12/15 02:14:29;;;;;;;129.13;47.15;;;3.80;99.90;;;;;;4916197;29;22663;-76
2023/12/15 02:16:55;;;;;;;135.27;44.25;;;3.80;99.90;;;;;;4915671;28;20085;-76
2023/12/15 02:19:23;;;;;;;146.27;46.45;;;3.80;99.90;;;;;;4946160;23;20409;-78
2023/12/15 02:21:51;;;;;;;142.43;43.28;;;3.90;99.90;;;;;;4869099;29;20044;-77
2023/12/15 02:24:18;;;;;;;150.02;45.15;;;3.90;99.90;;;;;;4916110;29;20051;-78
2023/12/15 02:26:45;;;;;;;148.27;45.53;;;3.90;99.90;;;;;;4910670;29;20045;-79
2023/12/15 02:29:12;;;;;;;143.73;45.35;;;4.00;99.90;;;;;;4884073;29;20571;-78
2023/12/15 02:31:39;;;;;;;144.68;46.88;;;4.00;99.90;;;;;;4874443;29;20052;-78
2023/12/15 02:34:05;;;;;;;147.35;47.85;;;4.00;99.90;;;;;;4882445;29;20037;-79
2023/12/15 02:36:33;;;;;;;142.48;44.38;;;4.00;99.90;;;;;;4876559;29;20266;-78
2023/12/15 02:39:02;;;;;;;146.50;46.50;;;4.00;99.90;;;;;;4886493;29;20056;-78
2023/12/15 02:41:33;;;;;;;147.25;46.95;;;4.00;99.90;;;;;;4870608;29;20044;-79
2023/12/15 02:43:59;;;;;;;152.82;48.85;;;4.00;99.90;;;;;;4878265;29;20041;-78
2023/12/15 02:46:26;;;;;;;165.00;52.17;;;4.10;99.90;;;;;;4891786;29;20073;-78
2023/12/15 02:48:53;;;;;;;153.55;47.50;;;4.10;99.90;;;;;;4884437;29;20072;-77
2023/12/15 02:51:25;;;;;;;133.98;46.40;;;4.20;99.90;;;;;;4869161;29;20088;-78
2023/12/15 02:53:51;;;;;;;156.93;47.45;;;4.20;99.90;;;;;;4900191;29;20052;-78
2023/12/15 02:56:19;;;;;;;154.35;48.45;;;4.20;99.90;;;;;;4898535;29;20139;-77
2023/12/15 02:58:45;;;;;;;161.30;46.42;;;4.20;99.90;;;;;;4890429;29;20157;-79
2023/12/15 03:01:12;;;;;;;150.52;48.42;;;4.30;99.90;;;;;;4888046;29;20044;-78
2023/12/15 03:03:39;;;;;;;155.80;49.65;;;4.30;99.90;;;;;;4887009;29;20530;-81
2023/12/15 03:06:06;;;;;;;159.15;48.03;;;4.30;99.90;;;;;;4890684;29;20055;-80
2023/12/15 03:08:33;;;;;;;151.38;46.67;;;4.30;99.90;;;;;;4873679;29;20121;-81
2023/12/15 03:11:00;;;;;;;155.27;46.35;;;4.40;99.90;;;;;;4885905;29;20132;-81
2023/12/15 03:13:28;;;;;;;156.68;48.55;;;4.40;99.90;;;;;;4885171;29;20049;-81
2023/12/15 03:16:09;;;;;;;139.55;44.60;;;4.40;99.90;;;;;;4867782;29;20102;-80
2023/12/15 03:18:36;;;;;;;150.80;44.55;;;4.40;99.90;;;;;;4885582;29;20137;-81
2023/12/15 03:21:03;;;;;;;137.40;44.50;;;4.40;99.90;;;;;;4852220;29;20048;-81
2023/12/15 03:23:30;;;;;;;136.52;43.58;;;4.40;99.90;;;;;;4871906;29;20093;-80
2023/12/15 03:25:58;;;;;;;133.10;40.92;;;4.40;99.90;;;;;;4884661;29;20062;-82
2023/12/15 03:28:24;;;;;;;126.55;42.72;;;4.30;99.90;;;;;;4889508;29;20075;-79
2023/12/15 03:30:51;;;;;;;134.00;44.40;;;4.40;99.90;;;;;;4886839;29;20041;-80
2023/12/15 03:33:18;;;;;;;122.22;40.10;;;4.40;99.90;;;;;;4872756;29;20119;-80
2023/12/15 03:35:45;;;;;;;131.93;42.17;;;4.40;99.90;;;;;;4888968;29;20044;-80
2023/12/15 03:38:12;;;;;;;115.35;38.05;;;4.40;99.90;;;;;;4884040;29;20052;-80
2023/12/15 03:40:39;;;;;;;109.43;35.72;;;4.40;99.90;;;;;;4883058;29;20053;-80
2023/12/15 03:43:06;;;;;;;113.47;36.55;;;4.30;99.90;;;;;;4888637;29;20045;-80
2023/12/15 03:45:33;;;;;;;109.47;36.65;;;4.40;99.90;;;;;;4890998;29;20118;-81
2023/12/15 03:48:00;;;;;;;115.30;36.60;;;4.30;99.90;;;;;;4886435;29;20071;-81
2023/12/15 03:50:27;;;;;;;119.57;37.20;;;4.40;99.90;;;;;;4884068;29;20100;-80
2023/12/15 03:52:54;;;;;;;109.28;34.53;;;4.40;99.90;;;;;;4871429;29;20053;-81
2023/12/15 03:55:21;;;;;;;105.63;36.40;;;4.50;99.90;;;;;;4891156;29;20044;-78
2023/12/15 03:57:48;;;;;;;110.32;36.35;;;4.40;99.90;;;;;;4886249;29;20071;-78
2023/12/15 04:00:16;;;;;;;100.95;32.63;;;4.40;99.90;;;;;;4882710;29;20422;-78
2023/12/15 04:02:43;;;;;;;95.63;33.72;;;4.50;99.90;;;;;;4866272;29;20129;-80
2023/12/15 04:05:11;;;;;;;100.63;32.00;;;4.50;99.90;;;;;;4895752;29;20048;-78
2023/12/15 04:07:38;;;;;;;99.55;34.72;;;4.50;99.90;;;;;;4866963;29;20621;-79
2023/12/15 04:10:06;;;;;;;88.82;31.73;;;4.50;99.90;;;;;;4880783;29;20516;-79
2023/12/15 04:12:33;;;;;;;77.60;29.20;;;4.50;99.90;;;;;;4887886;29;20048;-79
2023/12/15 04:14:59;;;;;;;71.55;26.25;;;4.50;99.90;;;;;;4863262;29;20320;-79
2023/12/15 04:17:26;;;;;;;80.13;26.92;;;4.50;99.90;;;;;;4858717;29;20081;-79
2023/12/15 04:19:53;;;;;;;68.55;25.05;;;4.60;99.90;;;;;;4881276;29;20266;-78
2023/12/15 04:22:22;;;;;;;74.47;27.40;;;4.60;99.90;;;;;;4868574;29;20052;-79
2023/12/15 04:24:49;;;;;;;78.18;27.10;;;4.60;99.90;;;;;;4874329;29;20056;-79
2023/12/15 04:27:16;;;;;;;68.38;25.23;;;4.60;99.90;;;;;;4895718;29;20100;-80
2023/12/15 04:29:43;;;;;;;73.32;25.02;;;4.70;99.90;;;;;;4884545;29;20385;-79
2023/12/15 04:32:12;;;;;;;72.32;26.08;;;4.70;99.90;;;;;;4883034;29;20047;-79
2023/12/15 04:34:39;;;;;;;71.63;25.60;;;4.70;99.90;;;;;;4853545;29;20538;-79
2023/12/15 04:37:06;;;;;;;73.05;26.17;;;4.70;99.90;;;;;;4880073;29;20060;-79
2023/12/15 04:39:33;;;;;;;79.82;25.27;;;4.70;99.90;;;;;;4892028;29;20048;-80
2023/12/15 04:42:00;;;;;;;76.47;27.38;;;4.70;99.90;;;;;;4889169;29;20064;-79
2023/12/15 04:44:27;;;;;;;80.35;27.17;;;4.70;99.90;;;;;;4894340;29;20432;-80
2023/12/15 04:46:55;;;;;;;82.05;27.73;;;4.70;99.90;;;;;;4897921;29;20516;-79
2023/12/15 04:49:22;;;;;;;95.95;30.90;;;4.70;99.90;;;;;;4869641;29;20044;-79
2023/12/15 04:51:49;;;;;;;91.45;27.60;;;4.70;99.90;;;;;;4895024;29;20052;-79
2023/12/15 04:54:16;;;;;;;87.03;30.45;;;4.70;99.90;;;;;;4871441;29;20052;-80
2023/12/15 04:56:44;;;;;;;106.53;29.25;;;4.70;99.90;;;;;;4892809;29;20058;-80
2023/12/15 04:59:12;;;;;;;83.57;31.02;;;4.70;99.90;;;;;;4875169;29;20048;-81
2023/12/15 05:01:39;;;;;;;94.18;30.85;;;4.70;99.90;;;;;;4901290;29;20219;-81
2023/12/15 05:04:05;;;;;;;94.25;30.27;;;4.70;99.90;;;;;;4865201;29;20056;-80
2023/12/15 05:06:34;;;;;;;102.05;29.15;;;4.70;99.90;;;;;;4893389;29;20048;-81
2023/12/15 05:09:04;;;;;;;98.70;29.77;;;4.70;99.90;;;;;;4890386;29;20067;-81
2023/12/15 05:11:36;;;;;;;97.50;32.60;;;4.70;99.90;;;;;;4898125;29;20068;-80
2023/12/15 05:14:03;;;;;;;97.70;29.17;;;4.70;99.90;;;;;;4897097;29;20233;-80
2023/12/15 05:16:30;;;;;;;103.28;32.67;;;4.70;99.90;;;;;;4889300;29;20053;-80
2023/12/15 05:18:57;;;;;;;111.18;33.42;;;4.80;99.90;;;;;;4888865;29;20075;-81
2023/12/15 05:21:24;;;;;;;92.03;28.67;;;4.80;99.90;;;;;;4886197;29;20049;-82
2023/12/15 05:23:51;;;;;;;101.85;29.80;;;4.70;99.90;;;;;;4895387;29;20102;-82
2023/12/15 05:26:18;;;;;;;112.93;33.22;;;4.70;99.90;;;;;;4898470;29;20053;-80
2023/12/15 05:28:46;;;;;;;99.00;31.42;;;4.70;99.90;;;;;;4874385;29;20044;-81
2023/12/15 05:31:13;;;;;;;105.07;29.88;;;4.70;99.90;;;;;;4895726;29;20212;-79
2023/12/15 05:33:40;;;;;;;109.90;32.10;;;4.70;99.90;;;;;;4898790;29;20057;-80
2023/12/15 05:36:07;;;;;;;95.80;29.88;;;4.70;99.90;;;;;;4878580;29;20779;-81
2023/12/15 05:38:33;;;;;;;96.97;30.65;;;4.80;99.90;;;;;;4906832;29;20067;-80
2023/12/15 05:41:01;;;;;;;99.97;31.02;;;4.70;99.90;;;;;;4899292;29;20205;-83
2023/12/15 05:43:28;;;;;;;99.85;30.02;;;4.70;99.90;;;;;;4888039;29;20559;-80
2023/12/15 05:45:54;;;;;;;98.80;29.70;;;4.70;99.90;;;;;;4897699;29;20153;-81
2023/12/15 05:48:22;;;;;;;92.07;29.80;;;4.80;99.90;;;;;;4876329;29;20045;-80
2023/12/15 05:50:49;;;;;;;89.70;30.10;;;4.80;99.90;;;;;;4892034;29;20244;-80
2023/12/15 05:53:16;;;;;;;100.85;33.60;;;4.80;99.90;;;;;;4871051;29;20148;-80
2023/12/15 05:55:43;;;;;;;97.70;31.90;;;4.80;99.90;;;;;;4888716;29;20036;-79
2023/12/15 05:58:10;;;;;;;108.00;33.22;;;4.80;99.90;;;;;;4896374;29;20048;-80
2023/12/15 06:00:36;;;;;;;97.47;34.47;;;4.90;99.90;;;;;;4899218;29;20052;-80
2023/12/15 06:03:04;;;;;;;103.90;32.55;;;4.90;99.90;;;;;;4876605;29;20132;-79
2023/12/15 06:05:34;;;;;;;108.60;34.63;;;4.90;99.90;;;;;;4886284;29;20141;-80
2023/12/15 06:08:01;;;;;;;99.03;34.47;;;4.90;99.90;;;;;;4888923;29;20055;-80
2023/12/15 06:10:28;;;;;;;114.63;36.38;;;4.90;99.90;;;;;;4884330;29;20162;-79
2023/12/15 06:12:55;;;;;;;103.10;36.53;;;4.90;99.90;;;;;;4868997;29;20190;-79
2023/12/15 06:15:22;;;;;;;93.60;32.75;;;5.00;99.90;;;;;;4877601;29;20045;-79
2023/12/15 06:17:48;;;;;;;98.95;33.22;;;5.00;99.90;;;;;;4866197;29;20048;-79
2023/12/15 06:20:16;;;;;;;109.07;38.20;;;5.00;99.90;;;;;;4879189;29;20070;-80
2023/12/15 06:22:43;;;;;;;107.35;36.70;;;5.10;99.90;;;;;;4887833;29;20075;-79
2023/12/15 06:25:10;;;;;;;109.28;35.50;;;5.10;99.90;;;;;;4882355;29;20044;-80
2023/12/15 06:27:36;;;;;;;101.18;35.28;;;5.20;99.90;;;;;;4880942;29;20413;-79
2023/12/15 06:30:04;;;;;;;107.88;37.05;;;5.20;99.90;;;;;;4883476;29;20076;-79
2023/12/15 06:32:31;;;;;;;110.03;39.42;;;5.20;99.90;;;;;;4887476;29;20072;-79
2023/12/15 06:34:58;;;;;;;115.40;40.55;;;5.30;99.90;;;;;;4884130;29;20116;-78
2023/12/15 06:37:25;;;;;;;116.72;40.50;;;5.20;99.90;;;;;;4853983;29;21420;-79
2023/12/15 06:39:52;;;;;;;111.25;40.05;;;5.30;99.90;;;;;;4890218;29;20048;-79
2023/12/15 06:42:18;;;;;;;125.60;42.60;;;5.40;99.90;;;;;;4898278;29;20059;-79
2023/12/15 06:44:46;;;;;;;121.22;43.28;;;5.40;99.90;;;;;;4886383;29;20504;-79
2023/12/15 06:47:13;;;;;;;119.57;41.83;;;5.40;99.90;;;;;;4865384;29;20548;-79
2023/12/15 06:49:40;;;;;;;124.60;42.15;;;5.40;99.90;;;;;;4880754;29;20049;-79
2023/12/15 06:52:08;;;;;;;119.43;43.20;;;5.30;99.90;;;;;;4889753;29;20465;-79
2023/12/15 06:54:38;;;;;;;115.90;38.72;;;5.30;99.90;;;;;;4889999;29;20049;-79
2023/12/15 06:57:06;;;;;;;133.05;42.25;;;5.30;99.90;;;;;;4903173;29;20520;-79
2023/12/15 06:59:33;;;;;;;132.95;43.25;;;5.40;99.90;;;;;;4879742;29;20996;-79
2023/12/15 07:02:00;;;;;;;139.48;43.83;;;5.40;99.90;;;;;;4887641;29;21050;-79
2023/12/15 07:04:26;;;;;;;141.25;45.97;;;5.40;99.90;;;;;;4886283;29;20075;-79
2023/12/15 07:06:53;;;;;;;146.30;44.53;;;5.40;99.90;;;;;;4898419;29;20044;-79
2023/12/15 07:09:20;;;;;;;161.40;49.90;;;5.40;99.90;;;;;;4882745;29;20056;-79
2023/12/15 07:11:47;;;;;;;163.80;49.85;;;5.40;99.90;;;;;;4894190;29;20048;-79
2023/12/15 07:14:18;;;;;;;160.77;46.50;;;5.40;99.90;;;;;;4881994;29;20053;-79
2023/12/15 07:16:45;;;;;;;173.75;48.83;;;5.40;99.90;;;;;;4878346;29;20040;-79
2023/12/15 07:19:12;;;;;;;201.77;53.70;;;5.40;99.90;;;;;;4888235;29;20055;-79
2023/12/15 07:21:39;;;;;;;198.23;53.00;;;5.40;99.90;;;;;;4885955;29;20055;-79
2023/12/15 07:24:06;;;;;;;240.05;60.78;;;5.40;99.90;;;;;;4892873;29;20117;-79
2023/12/15 07:26:33;;;;;;;279.58;61.15;;;5.50;99.90;;;;;;4895765;29;20051;-78
2023/12/15 07:29:00;;;;;;;276.20;63.20;;;5.50;99.90;;;;;;4870868;29;21247;-79
2023/12/15 07:31:27;;;;;;;328.83;69.10;;;5.40;99.90;;;;;;4886650;29;20198;-80
2023/12/15 07:33:54;;;;;;;265.80;59.25;;;5.40;99.90;;;;;;4883529;29;20071;-79
2023/12/15 07:36:21;;;;;;;309.63;68.10;;;5.40;99.90;;;;;;4851246;29;20108;-80
2023/12/15 07:38:48;;;;;;;339.02;72.53;;;5.40;99.90;;;;;;4873772;29;20427;-80
2023/12/15 07:41:15;;;;;;;365.38;71.00;;;5.40;99.90;;;;;;4888490;29;20045;-80
2023/12/15 07:43:42;;;;;;;398.20;73.40;;;5.40;99.90;;;;;;4873264;29;20070;-80
2023/12/15 07:46:19;;;;;;;406.58;75.70;;;5.40;99.90;;;;;;4896561;29;20076;-80
2023/12/15 07:48:46;;;;;;;488.70;88.00;;;5.50;99.90;;;;;;4886305;29;20139;-80
2023/12/15 07:51:31;;;;;;;421.85;81.82;;;5.60;99.90;;;;;;4873966;29;20047;-80
2023/12/15 07:53:58;;;;;;;522.10;85.28;;;5.50;99.90;;;;;;4890182;29;20148;-80
2023/12/15 07:56:26;;;;;;;507.02;86.53;;;5.50;99.90;;;;;;4888785;29;20558;-79
2023/12/15 07:58:56;;;;;;;1073.32;154.32;;;5.60;99.90;;;;;;4893622;29;20055;-79
2023/12/15 08:01:24;;;;;;;626.75;95.78;;;5.60;99.90;;;;;;4873286;29;20048;-79
2023/12/15 08:03:51;;;;;;;758.88;102.43;;;5.60;99.90;;;;;;4897074;29;20329;-79
2023/12/15 08:06:21;;;;;;;552.42;88.50;;;5.60;99.90;;;;;;4858071;29;20048;-79
2023/12/15 08:08:48;;;;;;;722.50;112.07;;;5.60;99.90;;;;;;4873647;29;20052;-80
2023/12/15 08:11:15;;;;;;;684.88;107.25;;;5.60;99.90;;;;;;4896761;29;20044;-79
2023/12/15 08:13:42;;;;;;;628.80;96.15;;;5.70;99.90;;;;;;4885608;29;20118;-78
2023/12/15 08:16:10;;;;;;;709.22;106.28;;;5.70;99.90;;;;;;4887501;29;20044;-79
2023/12/15 08:18:41;;;;;;;702.67;99.78;;;5.70;99.90;;;;;;4867836;29;22392;-80
2023/12/15 08:21:10;;;;;;;712.28;104.30;;;5.70;99.90;;;;;;4899171;23;20045;-76
2023/12/15 08:23:37;;;;;;;824.17;117.80;;;5.80;99.90;;;;;;4861002;29;20062;-76
2023/12/15 08:26:04;;;;;;;799.67;120.72;;;5.70;99.90;;;;;;4891579;29;20082;-77
2023/12/15 08:28:31;;;;;;;823.35;121.00;;;5.80;99.90;;;;;;4879240;29;20088;-76
2023/12/15 08:31:24;;;;;;;748.67;109.05;;;5.80;99.90;;;;;;4894565;29;20051;-76
2023/12/15 08:33:57;;;;;;;897.95;123.82;;;5.80;99.90;;;;;;4902894;29;20052;-76
2023/12/15 08:36:27;;;;;;;911.85;123.60;;;5.80;99.90;;;;;;4915840;29;20052;-76
2023/12/15 08:39:00;;;;;;;736.97;105.85;;;5.80;99.90;;;;;;4920166;29;20056;-76
2023/12/15 08:41:32;;;;;;;760.28;111.50;;;5.90;99.90;;;;;;4900898;29;21429;-76
2023/12/15 08:44:04;;;;;;;854.10;122.45;;;5.80;99.90;;;;;;4875754;29;20050;-77
2023/12/15 08:46:37;;;;;;;891.95;129.30;;;5.90;99.90;;;;;;4898289;29;20055;-77
2023/12/15 08:49:10;;;;;;;886.05;124.68;;;5.90;99.90;;;;;;4904853;29;20055;-77
2023/12/15 08:51:41;;;;;;;851.97;122.32;;;5.90;99.90;;;;;;4899082;29;20488;-76
2023/12/15 08:54:10;;;;;;;674.60;99.80;;;6.00;99.90;;;;;;4867417;29;20045;-76
2023/12/15 08:56:43;;;;;;;647.13;90.05;;;5.90;99.90;;;;;;4885403;29;20055;-76
2023/12/15 08:59:21;;;;;;;694.20;102.65;;;5.90;99.90;;;;;;4868991;29;20040;-76
2023/12/15 09:02:01;;;;;;;688.67;100.43;;;5.90;99.90;;;;;;4889333;29;20091;-76
2023/12/15 09:04:32;;;;;;;942.20;130.23;;;6.00;99.90;;;;;;4907600;29;20052;-76
2023/12/15 09:07:08;;;;;;;905.20;127.57;;;6.00;99.90;;;;;;4878272;29;20929;-76
2023/12/15 09:09:38;;;;;;;;;;;6.10;99.90;;;;;;4880582;29;20059;-74
2023/12/15 09:12:11;;;;;;;861.28;113.90;;;6.00;99.90;;;;;;4886131;29;19930;-76
2023/12/15 09:14:41;;;;;;;810.60;114.05;;;6.00;99.90;;;;;;4890855;29;20159;-77
2023/12/15 09:17:15;;;;;;;880.55;124.47;;;6.00;99.90;;;;;;4883519;29;20136;-77
2023/12/15 09:19:44;;;;;;;925.70;128.85;;;6.00;99.90;;;;;;4895505;29;20108;-77
2023/12/15 09:22:20;;;;;;;848.45;120.70;;;6.00;99.90;;;;;;4901248;29;20127;-76
2023/12/15 09:24:51;;;;;;;953.75;129.32;;;6.00;99.90;;;;;;4884289;29;20052;-76
2023/12/15 09:27:29;;;;;;;723.88;108.75;;;6.00;99.90;;;;;;4883448;29;20669;-76
2023/12/15 09:30:03;;;;;;;981.95;142.05;;;6.00;99.90;;;;;;4881681;29;20920;-77
2023/12/15 09:32:32;;;;;;;886.92;117.03;;;6.00;99.90;;;;;;4890675;29;20060;-76
2023/12/15 09:35:05;;;;;;;765.03;108.38;;;6.10;99.90;;;;;;4895913;29;21044;-77
2023/12/15 09:37:36;;;;;;;897.10;133.77;;;6.10;99.90;;;;;;4893615;29;20719;-76
2023/12/15 09:40:07;;;;;;;934.85;141.88;;;6.10;99.90;;;;;;4895603;29;20154;-76
2023/12/15 09:43:04;;;;;;;782.92;113.10;;;6.00;99.90;;;;;;4894550;29;20052;-76
2023/12/15 09:45:33;;;;;;;975.25;138.18;;;6.10;99.90;;;;;;4877878;29;20470;-75
2023/12/15 09:48:13;;;;;;;696.20;99.20;;;6.10;99.90;;;;;;4876579;29;20090;-76
2023/12/15 09:50:59;;;;;;;896.55;129.07;;;6.10;99.90;;;;;;4876727;29;20051;-76
2023/12/15 09:53:39;;;;;;;833.35;119.97;;;6.10;99.90;;;;;;4888297;29;20051;-76
2023/12/15 09:56:19;;;;;;;903.45;130.02;;;6.10;99.90;;;;;;4867765;29;20040;-76
2023/12/15 09:59:04;;;;;;;852.08;119.63;;;6.20;99.90;;;;;;4898356;29;20078;-77
2023/12/15 10:01:32;;;;;;;876.28;118.57;;;6.20;99.90;;;;;;4894761;29;20052;-76
2023/12/15 10:04:12;;;;;;;963.20;126.78;;;6.20;99.90;;;;;;4885781;29;20586;-78
2023/12/15 10:06:47;;;;;;;;;;;6.20;99.90;;;;;;4878594;29;20051;-75
2023/12/15 10:09:18;;;;;;;938.28;122.38;;;6.20;99.90;;;;;;4896929;29;19924;-78
2023/12/15 10:11:50;;;;;;;896.42;121.38;;;6.20;99.90;;;;;;4881206;29;20154;-77
2023/12/15 10:14:25;;;;;;;700.90;102.32;;;6.20;99.90;;;;;;4881011;29;20059;-78
2023/12/15 10:16:55;;;;;;;737.83;108.18;;;6.20;99.90;;;;;;4909658;29;20056;-77
2023/12/15 10:19:28;;;;;;;696.40;105.45;;;6.20;99.90;;;;;;4883358;29;20056;-77
2023/12/15 10:22:05;;;;;;;892.75;118.05;;;6.20;99.90;;;;;;4891236;29;20047;-77
2023/12/15 10:24:43;;;;;;;994.95;130.10;;;6.30;99.90;;;;;;4873923;29;20057;-78
2023/12/15 10:27:13;;;;;;;953.72;134.63;;;6.30;99.90;;;;;;4871109;29;20597;-76
2023/12/15 10:29:46;;;;;;;891.83;127.00;;;6.30;99.90;;;;;;4883492;29;20052;-77
2023/12/15 10:32:18;;;;;;;882.45;122.07;;;6.30;99.90;;;;;;4902269;29;20036;-77
2023/12/15 10:34:46;;;;;;;897.78;122.93;;;6.30;99.90;;;;;;4884153;29;20508;-76
2023/12/15 10:37:23;;;;;;;1037.80;138.25;;;6.30;99.90;;;;;;4905306;29;20415;-77
2023/12/15 10:39:57;;;;;;;990.37;135.63;;;6.30;99.90;;;;;;4888470;29;20056;-77
2023/12/15 10:42:29;;;;;;;;;;;6.40;99.90;;;;;;4884093;29;20304;-76
2023/12/15 10:44:58;;;;;;;869.28;116.90;;;6.30;99.90;;;;;;4886728;29;19967;-77
2023/12/15 10:47:31;;;;;;;847.08;118.75;;;6.30;99.90;;;;;;4908242;29;20042;-76
2023/12/15 10:50:01;;;;;;;974.03;133.07;;;6.30;99.90;;;;;;4898057;29;20099;-78
2023/12/15 10:52:33;;;;;;;854.15;117.55;;;6.30;99.90;;;;;;4861435;29;20539;-76
2023/12/15 10:55:04;;;;;;;1041.57;143.25;;;6.30;99.90;;;;;;4881807;29;20048;-77
2023/12/15 10:57:33;;;;;;;982.15;138.18;;;6.30;99.90;;;;;;4875460;29;20523;-77
2023/12/15 11:00:04;;;;;;;976.60;133.27;;;6.30;99.90;;;;;;4885269;29;20048;-78
2023/12/15 11:02:42;;;;;;;1071.93;148.63;;;6.40;99.90;;;;;;4866470;29;20062;-77
2023/12/15 11:05:17;;;;;;;1063.75;141.45;;;6.40;99.90;;;;;;4885003;29;20055;-78
2023/12/15 11:08:18;;;;;;;1066.25;141.98;;;6.40;99.90;;;;;;4902042;29;20032;-77
2023/12/15 11:10:52;;;;;;;1086.68;137.20;;;6.50;99.90;;;;;;4881661;29;20060;-76
2023/12/15 11:13:50;;;;;;;994.95;133.85;;;6.50;99.90;;;;;;4885305;29;20075;-77
2023/12/15 11:16:19;;;;;;;845.35;123.70;;;6.40;99.90;;;;;;4884983;29;20206;-77
2023/12/15 11:18:52;;;;;;;992.47;130.13;;;6.40;99.90;;;;;;4914122;29;20056;-77
2023/12/15 11:21:29;;;;;;;908.63;132.68;;;6.50;99.90;;;;;;4898435;29;20152;-76
2023/12/15 11:24:03;;;;;;;771.53;114.47;;;6.40;99.90;;;;;;4873870;29;20045;-78
2023/12/15 11:26:44;;;;;;;795.13;118.75;;;6.50;99.90;;;;;;4881999;29;20103;-77
2023/12/15 11:29:19;;;;;;;707.58;112.85;;;6.50;99.90;;;;;;4884999;29;20736;-78
2023/12/15 11:31:47;;;;;;;690.08;115.60;;;6.50;99.90;;;;;;4885514;29;20056;-77
2023/12/15 11:34:40;;;;;;;618.05;102.63;;;6.50;99.90;;;;;;4896069;29;20054;-78
2023/12/15 11:37:25;;;;;;;524.65;88.32;;;6.50;99.90;;;;;;4902173;29;20583;-78
2023/12/15 11:40:00;;;;;;;;;;;6.50;99.90;;;;;;4887668;29;20558;-76
2023/12/15 11:42:31;;;;;;;474.23;96.13;;;6.50;99.90;;;;;;4885087;29;19930;-78
2023/12/15 11:45:06;;;;;;;506.55;110.07;;;6.50;99.90;;;;;;4896294;29;20629;-76
2023/12/15 11:47:41;;;;;;;490.90;106.78;;;6.50;99.90;;;;;;4877356;29;20049;-78
2023/12/15 11:50:19;;;;;;;365.40;84.60;;;6.50;99.90;;;;;;4898407;29;20040;-77
2023/12/15 11:52:49;;;;;;;291.35;69.97;;;6.50;99.90;;;;;;4873256;29;20144;-77
2023/12/15 11:55:21;;;;;;;353.58;85.82;;;6.50;99.90;;;;;;4886234;29;20111;-76
2023/12/15 11:57:57;;;;;;;371.92;90.82;;;6.50;99.90;;;;;;4899713;29;20059;-76
2023/12/15 12:00:26;;;;;;;381.17;85.53;;;6.50;99.90;;;;;;4877937;29;20060;-77
2023/12/15 12:02:56;;;;;;;386.17;87.00;;;6.50;99.90;;;;;;4884902;29;20076;-76
2023/12/15 12:05:38;;;;;;;435.90;96.05;;;6.50;99.90;;;;;;4884068;29;20721;-77
2023/12/15 12:08:17;;;;;;;428.00;99.55;;;6.60;99.90;;;;;;4915426;29;20135;-78
2023/12/15 12:10:50;;;;;;;420.25;95.85;;;6.60;99.90;;;;;;4889985;29;20051;-76
2023/12/15 12:13:21;;;;;;;449.98;104.90;;;6.60;99.90;;;;;;4887117;29;20127;-78
2023/12/15 12:15:52;;;;;;;419.38;96.40;;;6.70;99.90;;;;;;4896029;29;20538;-75
2023/12/15 12:18:27;;;;;;;390.35;90.38;;;6.70;99.90;;;;;;4901320;29;20044;-76
2023/12/15 12:21:09;;;;;;;363.55;84.50;;;6.70;99.90;;;;;;4871269;29;20044;-76
2023/12/15 12:23:54;;;;;;;337.95;80.63;;;6.70;99.90;;;;;;4883342;29;20080;-76
2023/12/15 12:26:30;;;;;;;359.17;90.53;;;6.80;99.90;;;;;;4898459;29;20044;-76
2023/12/15 12:29:05;;;;;;;325.08;83.30;;;6.80;99.90;;;;;;4881343;29;20582;-76
2023/12/15 12:31:51;;;;;;;377.88;85.50;;;6.80;99.90;;;;;;4872720;29;20817;-76
2023/12/15 12:34:32;;;;;;;404.90;93.18;;;6.80;99.90;;;;;;4889186;29;20063;-77
2023/12/15 12:37:00;;;;;;;433.38;100.53;;;6.80;99.90;;;;;;4886668;29;20138;-76
2023/12/15 12:39:44;;;;;;;446.33;91.88;;;6.80;99.90;;;;;;4885328;29;20068;-77
2023/12/15 12:42:21;;;;;;;524.75;99.70;;;6.80;99.90;;;;;;4886532;29;20044;-77